»·PEaware :: AAL127 KDFW-ZSPD

AAL127 :: KDFW-ZSPD

FLIGHT INFORMATION

Flight Status: Arrived
Operator:
American Airlines
More flights by this operator :: More flights under this callsign
Pilot: Drew L. (13237)
Aircraft: Unknown
(B789)
More flights by this aircraft type
Origin: KDFW Dallas-Ft Worth Intl
United States
Destination: ZSPD Pudong
China
More flights between these airports :: More routes between these airports
Route: +BLECO8 IRW ICT TKO DPR YYN YWV CALLY YOJ GOTOL SEKAP YGH ADREW BRW 72N71 LUTEM RUDBA RATEN NAMES N620 NALEB G494 NINON G494 SIMLI A588 BUBDI A588 CHI W107 SANKO A326 AKARA A593 DUMET DUM24J
File this flight plan on PilotEdge
Remarks: PBN / A1B1C1D1L1O1S2 DOF / 180602 REG / N899SB EET / KZKC0029 KZMP0058 KZDV0109 KZMP0127 KZLC0151 CZWG0213 CZEG0241 PAZA0522 UHMM0630 UEEE0724 UELL0950 UHHH1024 ZYSH1058 ZSHA1234 OPR / AAL PER / D RALT / UEEE RMK / TCAS SIMBRIEF
Altitude:
(Current/Filed)
34,000ft
Speed:
(Current/Filed)
500kts
Departed: 01-Jun-18 10:16 PM
Arrived: 02-Jun-18 12:12 PM
Distance/Time
Traveled:
6372nm/13:56
Distance/Time
To Go:
Arrived

Flight Plot

Page will automatically refresh every two minutes.

Flight plan parsing failed; only flown route is shown


Map Options




Map Legend


Flown Route
Filed Route
Departure Airport
Arrival Airport
Navaid (VOR, NDB)
Fix

Horizontal Profiles

Position Reports

Time Latitude Longitude Heading Altitude Ground
Speed
01-Jun-18 21:48 32.897887 -97.045946 90 620ft 0kts
01-Jun-18 21:49 32.897887 -97.045946 90 620ft 0kts
01-Jun-18 21:50 32.897887 -97.045946 90 620ft 0kts
01-Jun-18 21:51 32.897887 -97.045946 90 620ft 0kts
01-Jun-18 21:52 32.897887 -97.045946 90 620ft 0kts
01-Jun-18 21:53 32.897887 -97.045946 90 620ft 0kts
01-Jun-18 21:54 32.897887 -97.045946 90 620ft 0kts
01-Jun-18 21:55 32.897887 -97.045946 90 620ft 0kts
01-Jun-18 21:56 32.897887 -97.045946 90 620ft 0kts
01-Jun-18 21:57 32.897887 -97.045946 90 620ft 0kts
01-Jun-18 21:58 32.897887 -97.045946 90 620ft 0kts
01-Jun-18 21:59 32.897887 -97.045946 90 620ft 0kts
01-Jun-18 22:00 32.897887 -97.045946 90 620ft 0kts
01-Jun-18 22:01 32.897887 -97.045946 90 620ft 0kts
01-Jun-18 22:02 32.897887 -97.045946 90 620ft 0kts
01-Jun-18 22:03 32.897887 -97.045946 90 620ft 0kts
01-Jun-18 22:04 32.897887 -97.045946 90 620ft 0kts
01-Jun-18 22:05 32.897887 -97.045946 90 620ft 0kts
01-Jun-18 22:06 32.897884 -97.046111 84 620ft 2kts
01-Jun-18 22:07 32.897596 -97.046602 2 620ft 2kts
01-Jun-18 22:08 32.897297 -97.046606 0 620ft 0kts
01-Jun-18 22:09 32.897297 -97.046606 0 620ft 0kts
01-Jun-18 22:10 32.897297 -97.046606 0 620ft 0kts
01-Jun-18 22:11 32.898733 -97.047542 346 620ft 15kts
01-Jun-18 22:12 32.905708 -97.047557 359 620ft 32kts
01-Jun-18 22:13 32.911209 -97.047859 357 620ft 6kts
01-Jun-18 22:14 32.915633 -97.048370 276 620ft 15kts
01-Jun-18 22:15 32.915048 -97.050677 183 620ft 0kts
01-Jun-18 22:16 32.894555 -97.050820 178 620ft 161kts
01-Jun-18 22:17 32.848112 -97.049723 186 3182ft 164kts
01-Jun-18 22:18 32.804961 -97.068511 198 4404ft 233kts
01-Jun-18 22:19 32.763276 -97.128406 265 6987ft 288kts
01-Jun-18 22:20 32.770665 -97.227566 276 9669ft 309kts
01-Jun-18 22:21 32.842884 -97.278568 356 11100ft 373kts
01-Jun-18 22:22 32.951689 -97.271476 359 13340ft 396kts
01-Jun-18 22:23 33.062131 -97.249211 14 15782ft 409kts
01-Jun-18 22:24 33.172123 -97.209388 14 17948ft 418kts
01-Jun-18 22:25 33.285063 -97.168884 13 19684ft 431kts
01-Jun-18 22:26 33.401920 -97.126830 13 21279ft 444kts
01-Jun-18 22:27 33.523855 -97.099550 2 22809ft 450kts
01-Jun-18 22:28 33.650698 -97.083920 2 24184ft 462kts
01-Jun-18 22:29 33.779970 -97.067510 2 25558ft 473kts
01-Jun-18 22:30 33.912228 -97.050662 2 26934ft 484kts
01-Jun-18 22:31 34.047869 -97.033329 1 28253ft 496kts
01-Jun-18 22:32 34.186386 -97.015580 1 29759ft 507kts
01-Jun-18 22:33 34.327346 -96.998471 355 31515ft 505kts
01-Jun-18 22:34 34.459397 -97.035814 327 33467ft 479kts
01-Jun-18 22:35 34.576356 -97.112277 328 33963ft 477kts
01-Jun-18 22:36 34.694089 -97.186236 328 33941ft 476kts
01-Jun-18 22:37 34.811930 -97.260700 327 33948ft 476kts
01-Jun-18 22:38 34.929280 -97.335101 327 33952ft 476kts
01-Jun-18 22:39 35.046871 -97.409896 327 33933ft 475kts
01-Jun-18 22:40 35.163950 -97.484606 326 33928ft 475kts
01-Jun-18 22:41 35.280792 -97.559404 327 33939ft 474kts
01-Jun-18 22:42 35.410639 -97.598985 342 33938ft 485kts
01-Jun-18 22:43 35.546417 -97.606873 354 33935ft 496kts
01-Jun-18 22:44 35.684812 -97.605387 353 33931ft 499kts
01-Jun-18 22:45 35.824082 -97.603922 353 33922ft 499kts
01-Jun-18 22:46 35.962963 -97.602517 353 33911ft 500kts
01-Jun-18 22:47 36.102350 -97.601101 353 33915ft 500kts
01-Jun-18 22:48 36.241463 -97.599679 353 33912ft 500kts
01-Jun-18 22:49 36.380504 -97.598255 353 33902ft 500kts
01-Jun-18 22:50 36.520177 -97.596816 353 33902ft 500kts
01-Jun-18 22:51 36.659445 -97.595372 353 33923ft 501kts
01-Jun-18 22:52 36.798775 -97.593935 353 33931ft 502kts
01-Jun-18 22:53 36.938819 -97.592480 353 33932ft 502kts
01-Jun-18 22:54 37.078554 -97.591022 353 33935ft 503kts
01-Jun-18 22:55 37.218558 -97.589545 353 33913ft 504kts
01-Jun-18 22:56 37.359326 -97.588076 353 33931ft 505kts
01-Jun-18 22:57 37.499863 -97.586590 353 33921ft 506kts
01-Jun-18 22:58 37.641154 -97.585094 353 33912ft 507kts
01-Jun-18 22:59 37.781319 -97.594036 340 33914ft 501kts
01-Jun-18 23:00 37.914837 -97.638335 338 33908ft 495kts
01-Jun-18 23:01 38.048479 -97.680948 338 33912ft 494kts
01-Jun-18 23:02 38.181448 -97.723749 338 33884ft 493kts
01-Jun-18 23:03 38.314502 -97.766727 338 33878ft 494kts
01-Jun-18 23:04 38.447891 -97.809981 338 33861ft 494kts
01-Jun-18 23:05 38.580942 -97.853287 339 33866ft 494kts
01-Jun-18 23:06 38.714421 -97.896904 339 33858ft 494kts
01-Jun-18 23:07 38.847431 -97.940533 339 33849ft 494kts
01-Jun-18 23:08 38.980540 -97.984358 339 33861ft 494kts
01-Jun-18 23:09 39.114243 -98.028561 339 33861ft 496kts
01-Jun-18 23:10 39.247966 -98.072937 340 33855ft 497kts
01-Jun-18 23:11 39.381888 -98.117556 340 33865ft 498kts
01-Jun-18 23:12 39.516358 -98.162526 341 33880ft 498kts
01-Jun-18 23:13 39.650279 -98.207512 341 33885ft 498kts
01-Jun-18 23:14 39.784281 -98.252726 340 33890ft 498kts
01-Jun-18 23:15 39.911045 -98.322815 330 33913ft 493kts
01-Jun-18 23:16 40.035432 -98.397497 331 33924ft 493kts
01-Jun-18 23:17 40.160630 -98.473051 329 33968ft 499kts
01-Jun-18 23:18 40.288182 -98.550334 329 33997ft 510kts
01-Jun-18 23:19 40.417297 -98.628858 329 34020ft 514kts
01-Jun-18 23:20 40.547651 -98.708488 329 34022ft 517kts
01-Jun-18 23:21 40.678129 -98.788524 329 34016ft 519kts
01-Jun-18 23:22 40.808999 -98.869181 329 34021ft 521kts
01-Jun-18 23:23 40.940678 -98.950674 329 34028ft 523kts
01-Jun-18 23:24 41.072563 -99.032662 329 34020ft 525kts
01-Jun-18 23:25 41.204774 -99.115219 329 34021ft 527kts
01-Jun-18 23:26 41.337859 -99.198695 329 34035ft 529kts
01-Jun-18 23:27 41.470928 -99.282541 329 34039ft 531kts
01-Jun-18 23:28 41.605004 -99.367396 329 34026ft 533kts
01-Jun-18 23:29 41.739049 -99.452655 328 34036ft 535kts
01-Jun-18 23:30 41.873574 -99.538602 328 34042ft 537kts
01-Jun-18 23:31 42.008914 -99.625452 328 34040ft 539kts
01-Jun-18 23:32 42.144259 -99.712775 328 34054ft 541kts
01-Jun-18 23:33 42.279874 -99.800655 328 34061ft 542kts
01-Jun-18 23:34 42.415982 -99.889282 328 34064ft 542kts
01-Jun-18 23:35 42.551610 -99.978026 328 34065ft 542kts
01-Jun-18 23:36 42.687280 -100.067231 328 34078ft 542kts
01-Jun-18 23:37 42.823373 -100.157153 328 34083ft 543kts
01-Jun-18 23:38 42.959037 -100.247235 328 34089ft 544kts
01-Jun-18 23:39 43.094991 -100.337954 328 34101ft 545kts
01-Jun-18 23:40 43.231754 -100.429670 328 34094ft 547kts
01-Jun-18 23:41 43.368304 -100.521702 328 34081ft 548kts
01-Jun-18 23:42 43.505544 -100.614667 328 34108ft 549kts
01-Jun-18 23:43 43.642485 -100.707904 328 34093ft 549kts
01-Jun-18 23:44 43.779336 -100.801556 328 34088ft 549kts
01-Jun-18 23:45 43.916313 -100.895778 328 34098ft 548kts
01-Jun-18 23:46 44.052631 -100.990052 329 34100ft 549kts
01-Jun-18 23:47 44.189295 -101.085023 329 34090ft 550kts
01-Jun-18 23:48 44.326536 -101.180909 329 34086ft 550kts
01-Jun-18 23:49 44.463067 -101.276802 329 34085ft 549kts
01-Jun-18 23:50 44.599313 -101.373002 329 34079ft 549kts
01-Jun-18 23:51 44.736003 -101.470025 329 34065ft 549kts
01-Jun-18 23:52 44.872220 -101.567228 329 34065ft 550kts
01-Jun-18 23:53 45.008919 -101.665302 329 34085ft 551kts
01-Jun-18 23:54 45.139973 -101.775909 318 34065ft 548kts
01-Jun-18 23:55 45.263270 -101.902563 320 34078ft 548kts
01-Jun-18 23:56 45.387606 -102.029294 320 34068ft 548kts
01-Jun-18 23:57 45.510894 -102.155636 320 34062ft 546kts
01-Jun-18 23:58 45.634055 -102.282544 320 34067ft 547kts
01-Jun-18 23:59 45.757489 -102.410471 319 34049ft 547kts
02-Jun-18 00:00 45.880423 -102.538568 319 34042ft 546kts
02-Jun-18 00:01 46.002900 -102.666910 319 34050ft 545kts
02-Jun-18 00:02 46.125704 -102.796326 320 34046ft 547kts
02-Jun-18 00:03 46.248201 -102.926141 320 34038ft 546kts
02-Jun-18 00:04 46.370662 -103.056654 320 34041ft 545kts
02-Jun-18 00:05 46.492261 -103.186993 320 34026ft 543kts
02-Jun-18 00:06 46.613300 -103.317474 320 34027ft 542kts
02-Jun-18 00:07 46.734470 -103.448836 320 34055ft 541kts
02-Jun-18 00:08 46.854905 -103.580159 320 34065ft 541kts
02-Jun-18 00:09 46.975355 -103.712248 320 34073ft 542kts
02-Jun-18 00:10 47.096311 -103.845667 320 34073ft 544kts
02-Jun-18 00:11 47.217070 -103.979642 320 34051ft 545kts
02-Jun-18 00:12 47.337532 -104.114059 320 34048ft 543kts
02-Jun-18 00:13 47.457962 -104.249253 320 34016ft 543kts
02-Jun-18 00:14 47.577903 -104.384684 320 34001ft 543kts
02-Jun-18 00:15 47.698167 -104.521289 320 34008ft 543kts
02-Jun-18 00:16 47.817856 -104.658051 320 33996ft 543kts
02-Jun-18 00:17 47.937199 -104.795239 320 34004ft 541kts
02-Jun-18 00:18 48.056439 -104.933138 320 34022ft 543kts
02-Jun-18 00:19 48.175901 -105.072113 320 34030ft 545kts
02-Jun-18 00:20 48.295283 -105.211846 319 34031ft 544kts
02-Jun-18 00:21 48.414674 -105.352444 319 34039ft 543kts
02-Jun-18 00:22 48.533293 -105.492995 319 34034ft 543kts
02-Jun-18 00:23 48.651564 -105.633977 319 34038ft 542kts
02-Jun-18 00:24 48.770163 -105.776262 319 34059ft 543kts
02-Jun-18 00:25 48.888404 -105.918978 319 34059ft 545kts
02-Jun-18 00:26 49.006845 -106.062822 319 34044ft 544kts
02-Jun-18 00:27 49.125177 -106.207454 319 34039ft 544kts
02-Jun-18 00:28 49.243147 -106.352542 319 34041ft 546kts
02-Jun-18 00:29 49.341906 -106.474718 319 34030ft 547kts
02-Jun-18 00:30 49.460101 -106.621790 318 34024ft 547kts
02-Jun-18 00:31 49.578077 -106.769534 318 34055ft 547kts
02-Jun-18 00:32 49.696254 -106.918469 318 34052ft 547kts
02-Jun-18 00:33 49.813632 -107.067391 318 34053ft 546kts
02-Jun-18 00:34 49.949899 -107.241481 318 34072ft 544kts
02-Jun-18 00:35 50.066851 -107.391946 318 34082ft 546kts
02-Jun-18 00:36 50.183740 -107.543315 317 34092ft 547kts
02-Jun-18 00:37 50.280986 -107.669719 319 34084ft 546kts
02-Jun-18 00:38 50.404988 -107.808579 323 34084ft 547kts
02-Jun-18 00:39 50.529681 -107.945486 323 34098ft 548kts
02-Jun-18 00:40 50.654767 -108.083518 322 34100ft 547kts
02-Jun-18 00:41 50.778941 -108.221529 322 34106ft 547kts
02-Jun-18 00:42 50.903126 -108.360457 322 34126ft 548kts
02-Jun-18 00:43 51.027734 -108.500793 322 34136ft 549kts
02-Jun-18 00:44 51.151976 -108.641651 321 34131ft 549kts
02-Jun-18 00:45 51.276255 -108.783529 321 34145ft 550kts
02-Jun-18 00:46 51.400621 -108.926465 321 34154ft 549kts
02-Jun-18 00:47 51.524258 -109.069534 321 34147ft 548kts
02-Jun-18 00:48 51.647990 -109.213687 320 34141ft 547kts
02-Jun-18 00:49 51.770857 -109.357837 320 34150ft 546kts
02-Jun-18 00:50 51.893249 -109.502416 320 34154ft 545kts
02-Jun-18 00:51 52.015553 -109.647889 320 34143ft 544kts
02-Jun-18 00:52 52.137322 -109.793722 320 34141ft 544kts
02-Jun-18 00:53 52.258765 -109.940206 319 34149ft 544kts
02-Jun-18 00:54 52.380351 -110.087870 319 34146ft 542kts
02-Jun-18 00:55 52.500981 -110.235412 319 34142ft 541kts
02-Jun-18 00:56 52.621134 -110.383391 319 34151ft 539kts
02-Jun-18 00:57 52.741071 -110.532155 319 34150ft 538kts
02-Jun-18 00:58 52.860148 -110.680895 319 34138ft 536kts
02-Jun-18 00:59 52.978785 -110.828934 320 34143ft 534kts
02-Jun-18 01:00 53.101758 -110.967994 322 34151ft 533kts
02-Jun-18 01:01 53.224410 -111.106320 322 34143ft 532kts
02-Jun-18 01:02 53.346825 -111.245189 322 34148ft 529kts
02-Jun-18 01:03 53.468158 -111.383833 322 34165ft 527kts
02-Jun-18 01:04 53.588755 -111.522591 322 34169ft 525kts
02-Jun-18 01:05 53.709060 -111.662024 322 34161ft 522kts
02-Jun-18 01:06 53.828369 -111.801234 322 34160ft 520kts
02-Jun-18 01:07 53.947030 -111.940721 322 34173ft 519kts
02-Jun-18 01:08 54.065722 -112.081197 322 34176ft 519kts
02-Jun-18 01:09 54.183850 -112.222022 322 34165ft 518kts
02-Jun-18 01:10 54.302132 -112.364018 322 34162ft 518kts
02-Jun-18 01:11 54.419790 -112.506291 322 34173ft 518kts
02-Jun-18 01:12 54.537077 -112.649119 321 34174ft 517kts
02-Jun-18 01:13 54.654550 -112.793219 321 34163ft 516kts
02-Jun-18 01:14 54.771232 -112.937385 321 34164ft 516kts
02-Jun-18 01:15 54.887682 -113.082312 321 34172ft 515kts
02-Jun-18 01:16 55.004351 -113.228563 320 34160ft 515kts
02-Jun-18 01:17 55.121089 -113.373533 323 34155ft 516kts
02-Jun-18 01:18 55.245119 -113.500253 328 34154ft 518kts
02-Jun-18 01:19 55.371307 -113.624239 328 34138ft 519kts
02-Jun-18 01:20 55.497011 -113.748633 328 34149ft 519kts
02-Jun-18 01:21 55.622678 -113.873997 327 34147ft 520kts
02-Jun-18 01:22 55.748776 -114.000706 327 34135ft 520kts
02-Jun-18 01:23 55.874360 -114.127864 327 34140ft 520kts
02-Jun-18 01:24 56.000250 -114.256286 327 34149ft 520kts
02-Jun-18 01:25 56.125542 -114.385071 327 34141ft 520kts
02-Jun-18 01:26 56.250730 -114.514727 327 34134ft 520kts
02-Jun-18 01:27 56.376285 -114.645734 326 34144ft 520kts
02-Jun-18 01:28 56.501279 -114.777202 326 34144ft 520kts
02-Jun-18 01:29 56.626575 -114.910009 326 34131ft 520kts
02-Jun-18 01:30 56.751308 -115.043237 326 34128ft 521kts
02-Jun-18 01:31 56.876007 -115.177423 326 34113ft 521kts
02-Jun-18 01:32 57.001025 -115.313108 326 34116ft 521kts
02-Jun-18 01:33 57.125482 -115.449199 326 34114ft 521kts
02-Jun-18 01:34 57.250261 -115.586710 326 34101ft 521kts
02-Jun-18 01:35 57.374484 -115.724749 326 34103ft 522kts
02-Jun-18 01:36 57.498743 -115.863909 326 34096ft 522kts
02-Jun-18 01:37 57.623245 -116.004472 325 34095ft 522kts
02-Jun-18 01:38 57.747247 -116.145612 325 34081ft 522kts
02-Jun-18 01:39 57.871201 -116.287847 325 34081ft 523kts
02-Jun-18 01:40 57.995309 -116.431432 325 34086ft 522kts
02-Jun-18 01:41 58.118726 -116.575400 325 34076ft 522kts
02-Jun-18 01:42 58.242001 -116.720382 325 34066ft 521kts
02-Jun-18 01:43 58.365310 -116.866624 325 34075ft 521kts
02-Jun-18 01:44 58.488002 -117.013337 325 34074ft 520kts
02-Jun-18 01:45 58.608832 -117.166761 321 34061ft 519kts
02-Jun-18 01:46 58.725938 -117.328124 321 34068ft 519kts
02-Jun-18 01:47 58.843071 -117.490060 321 34075ft 518kts
02-Jun-18 01:48 58.960098 -117.653334 321 34070ft 517kts
02-Jun-18 01:49 59.076533 -117.817149 321 34064ft 517kts
02-Jun-18 01:50 59.192529 -117.981745 320 34074ft 516kts
02-Jun-18 01:51 59.308666 -118.147963 320 34080ft 516kts
02-Jun-18 01:52 59.423955 -118.314407 320 34071ft 515kts
02-Jun-18 01:53 59.539056 -118.482021 320 34071ft 515kts
02-Jun-18 01:54 59.654184 -118.651138 320 34082ft 515kts
02-Jun-18 01:55 59.767869 -118.823134 318 34056ft 514kts
02-Jun-18 01:56 59.877445 -119.005172 317 34061ft 514kts
02-Jun-18 01:57 59.987165 -119.188858 317 34066ft 514kts
02-Jun-18 01:58 60.096012 -119.372904 316 34068ft 512kts
02-Jun-18 01:59 60.204679 -119.558271 316 34056ft 512kts
02-Jun-18 02:00 60.312814 -119.744393 316 34056ft 512kts
02-Jun-18 02:01 60.420663 -119.931701 316 34073ft 512kts
02-Jun-18 02:02 60.528578 -120.120861 316 34062ft 511kts
02-Jun-18 02:03 60.635758 -120.310430 316 34054ft 511kts
02-Jun-18 02:04 60.742458 -120.500893 316 34057ft 510kts
02-Jun-18 02:05 60.849132 -120.693075 316 34068ft 509kts
02-Jun-18 02:06 60.955064 -120.885689 315 34064ft 508kts
02-Jun-18 02:07 61.060529 -121.079242 315 34057ft 508kts
02-Jun-18 02:08 61.165960 -121.274529 315 34065ft 507kts
02-Jun-18 02:09 61.270678 -121.470333 315 34071ft 507kts
02-Jun-18 02:10 61.375296 -121.667777 315 34062ft 506kts
02-Jun-18 02:11 61.479095 -121.865535 315 34063ft 505kts
02-Jun-18 02:12 61.582367 -122.064163 315 34073ft 504kts
02-Jun-18 02:13 61.685563 -122.264518 315 34069ft 504kts
02-Jun-18 02:14 61.788109 -122.465524 315 34059ft 503kts
02-Jun-18 02:15 61.890324 -122.667808 314 34065ft 504kts
02-Jun-18 02:16 61.998281 -122.858947 322 34073ft 505kts
02-Jun-18 02:17 62.121640 -123.002244 330 34062ft 506kts
02-Jun-18 02:18 62.245599 -123.146028 330 34061ft 505kts
02-Jun-18 02:19 62.369018 -123.289763 330 34070ft 505kts
02-Jun-18 02:20 62.492215 -123.434678 330 34071ft 505kts
02-Jun-18 02:21 62.615614 -123.581200 329 34054ft 505kts
02-Jun-18 02:22 62.738443 -123.728442 329 34055ft 504kts
02-Jun-18 02:23 62.861138 -123.876949 329 34063ft 504kts
02-Jun-18 02:24 62.983932 -124.027008 330 34057ft 504kts
02-Jun-18 02:25 63.106175 -124.177851 329 34049ft 503kts
02-Jun-18 02:26 63.228097 -124.329769 330 34049ft 503kts
02-Jun-18 02:27 63.350225 -124.483436 329 34059ft 503kts
02-Jun-18 02:28 63.471759 -124.637868 329 34054ft 503kts
02-Jun-18 02:29 63.593520 -124.794121 329 34044ft 503kts
02-Jun-18 02:30 63.714722 -124.951228 329 34051ft 503kts
02-Jun-18 02:31 63.835554 -125.109410 329 34057ft 502kts
02-Jun-18 02:32 63.956585 -125.269456 329 34049ft 502kts
02-Jun-18 02:33 64.077042 -125.430363 329 34044ft 502kts
02-Jun-18 02:34 64.197100 -125.592367 329 34053ft 501kts
02-Jun-18 02:35 64.317361 -125.756307 329 34058ft 501kts
02-Jun-18 02:36 64.437029 -125.921110 328 34048ft 501kts
02-Jun-18 02:37 64.556515 -126.087374 328 34048ft 501kts
02-Jun-18 02:38 64.676159 -126.255588 328 34060ft 501kts
02-Jun-18 02:39 64.795238 -126.424757 328 34059ft 501kts
02-Jun-18 02:40 64.914393 -126.595816 328 34050ft 501kts
02-Jun-18 02:41 65.032972 -126.767850 328 34056ft 501kts
02-Jun-18 02:42 65.151328 -126.941386 327 34065ft 500kts
02-Jun-18 02:43 65.269870 -127.117050 327 34057ft 500kts
02-Jun-18 02:44 65.387659 -127.293477 327 34049ft 500kts
02-Jun-18 02:45 65.505262 -127.471509 326 34052ft 500kts
02-Jun-18 02:46 65.622921 -127.651592 326 34038ft 499kts
02-Jun-18 02:47 65.720424 -127.802304 326 34020ft 500kts
02-Jun-18 02:48 65.837507 -127.985110 326 34004ft 501kts
02-Jun-18 02:49 65.954795 -128.170253 325 33982ft 501kts
02-Jun-18 02:50 66.071465 -128.356472 325 33975ft 501kts
02-Jun-18 02:51 66.187988 -128.544525 325 33977ft 500kts
02-Jun-18 02:52 66.300218 -128.827462 304 33974ft 497kts
02-Jun-18 02:53 66.383811 -129.101020 305 33972ft 497kts
02-Jun-18 02:54 66.467177 -129.377532 305 33965ft 497kts
02-Jun-18 02:55 66.549840 -129.654770 305 33976ft 497kts
02-Jun-18 02:56 66.618276 -129.887021 305 33982ft 497kts
02-Jun-18 02:57 66.700294 -130.168602 304 33978ft 497kts
02-Jun-18 02:58 66.781500 -130.450967 304 33995ft 497kts
02-Jun-18 02:59 66.862188 -130.735196 304 34004ft 496kts
02-Jun-18 03:00 66.942529 -131.021879 304 34012ft 496kts
02-Jun-18 03:01 67.022183 -131.309845 303 34050ft 496kts
02-Jun-18 03:02 67.101254 -131.599477 303 34059ft 496kts
02-Jun-18 03:03 67.180143 -131.892321 303 34553ft 497kts
02-Jun-18 03:04 67.258126 -132.185678 303 36051ft 499kts
02-Jun-18 03:05 67.332065 -132.467453 303 37422ft 499kts
02-Jun-18 03:06 67.409667 -132.767164 303 38097ft 501kts
02-Jun-18 03:07 67.486827 -133.069292 302 38017ft 501kts
02-Jun-18 03:08 67.563581 -133.374021 302 37986ft 501kts
02-Jun-18 03:09 67.639605 -133.680080 301 37997ft 501kts
02-Jun-18 03:10 67.714899 -133.987524 301 37999ft 500kts
02-Jun-18 03:11 67.789844 -134.297903 301 37990ft 500kts
02-Jun-18 03:12 67.863968 -134.609277 301 37993ft 500kts
02-Jun-18 03:13 67.937535 -134.922826 300 37992ft 501kts
02-Jun-18 03:14 68.010742 -135.239368 300 38006ft 501kts
02-Jun-18 03:15 68.083045 -135.556673 300 38012ft 500kts
02-Jun-18 03:16 68.154935 -135.876827 299 38036ft 500kts
02-Jun-18 03:17 68.225926 -136.197724 299 38050ft 500kts
02-Jun-18 03:18 68.296333 -136.520782 299 38074ft 500kts
02-Jun-18 03:19 68.366341 -136.846924 299 38090ft 500kts
02-Jun-18 03:20 68.435470 -137.173929 298 38098ft 500kts
02-Jun-18 03:21 68.503983 -137.503044 298 38123ft 500kts
02-Jun-18 03:22 68.572023 -137.835036 298 38124ft 500kts
02-Jun-18 03:23 68.639180 -138.167905 297 38115ft 500kts
02-Jun-18 03:24 68.705727 -138.503010 297 38120ft 500kts
02-Jun-18 03:25 68.771767 -138.840941 297 38125ft 500kts
02-Jun-18 03:26 68.836879 -139.179554 296 38116ft 499kts
02-Jun-18 03:27 68.901547 -139.521366 296 38112ft 499kts
02-Jun-18 03:28 68.965256 -139.863768 296 38136ft 499kts
02-Jun-18 03:29 69.028298 -140.208242 296 38123ft 499kts
02-Jun-18 03:30 69.090818 -140.555656 295 38146ft 499kts
02-Jun-18 03:31 69.152476 -140.903665 296 38151ft 499kts
02-Jun-18 03:32 69.217268 -141.247988 298 38139ft 499kts
02-Jun-18 03:33 69.283499 -141.592789 297 38140ft 499kts
02-Jun-18 03:34 69.348677 -141.938493 297 38151ft 499kts
02-Jun-18 03:35 69.413185 -142.286415 296 38149ft 499kts
02-Jun-18 03:36 69.477219 -142.637648 296 38142ft 499kts
02-Jun-18 03:37 69.540319 -142.989700 296 38153ft 498kts
02-Jun-18 03:38 69.602848 -143.344685 295 38166ft 498kts
02-Jun-18 03:39 69.664417 -143.700349 295 38165ft 498kts
02-Jun-18 03:40 69.725210 -144.057741 295 38165ft 498kts
02-Jun-18 03:41 69.785497 -144.418548 294 38176ft 498kts
02-Jun-18 03:42 69.844801 -144.779904 294 38174ft 497kts
02-Jun-18 03:43 69.903322 -145.143037 294 38161ft 497kts
02-Jun-18 03:44 69.961337 -145.509724 293 38160ft 497kts
02-Jun-18 03:45 70.018332 -145.876736 293 38168ft 497kts
02-Jun-18 03:46 70.074527 -146.245498 293 38160ft 496kts
02-Jun-18 03:47 70.130106 -146.617255 292 38152ft 497kts
02-Jun-18 03:48 70.184798 -146.990183 292 38154ft 497kts
02-Jun-18 03:49 70.238960 -147.366859 292 38163ft 497kts
02-Jun-18 03:50 70.292028 -147.743351 291 38154ft 496kts
02-Jun-18 03:51 70.344232 -148.121216 291 38155ft 495kts
02-Jun-18 03:52 70.395757 -148.501866 291 38167ft 495kts
02-Jun-18 03:53 70.446387 -148.883711 290 38164ft 496kts
02-Jun-18 03:54 70.496222 -149.267558 290 38155ft 496kts
02-Jun-18 03:55 70.545390 -149.654428 290 38161ft 496kts
02-Jun-18 03:56 70.593586 -150.041960 290 38172ft 496kts
02-Jun-18 03:57 70.640906 -150.430925 289 38166ft 495kts
02-Jun-18 03:58 70.687587 -150.823304 289 38160ft 495kts
02-Jun-18 03:59 70.733260 -151.216101 288 38167ft 496kts
02-Jun-18 04:00 70.778070 -151.610476 288 38171ft 495kts
02-Jun-18 04:01 70.822140 -152.007555 288 38164ft 495kts
02-Jun-18 04:02 70.865169 -152.404728 288 38164ft 495kts
02-Jun-18 04:03 70.907519 -152.805247 287 38165ft 495kts
02-Jun-18 04:04 70.948874 -153.206256 287 38173ft 494kts
02-Jun-18 04:05 70.989310 -153.608385 287 38160ft 494kts
02-Jun-18 04:06 71.028983 -154.013364 286 38152ft 494kts
02-Jun-18 04:07 71.067644 -154.418548 286 38158ft 494kts
02-Jun-18 04:08 71.105413 -154.825198 286 38160ft 494kts
02-Jun-18 04:09 71.142412 -155.234739 285 38148ft 494kts
02-Jun-18 04:10 71.178367 -155.644116 285 38142ft 494kts
02-Jun-18 04:11 71.213432 -156.055077 285 38152ft 493kts
02-Jun-18 04:12 71.247654 -156.468235 285 38155ft 493kts
02-Jun-18 04:13 71.281761 -156.880489 286 38147ft 492kts
02-Jun-18 04:14 71.318834 -157.292008 286 38145ft 492kts
02-Jun-18 04:15 71.354665 -157.703112 285 38155ft 491kts
02-Jun-18 04:16 71.389598 -158.115365 285 38146ft 491kts
02-Jun-18 04:17 71.423711 -158.530123 285 38135ft 490kts
02-Jun-18 04:18 71.456790 -158.944733 284 38127ft 490kts
02-Jun-18 04:19 71.488946 -159.360554 284 38113ft 489kts
02-Jun-18 04:20 71.520246 -159.778515 284 38113ft 489kts
02-Jun-18 04:21 71.550531 -160.196485 283 38090ft 489kts
02-Jun-18 04:22 71.579870 -160.615347 283 38096ft 488kts
02-Jun-18 04:23 71.608344 -161.036307 283 38101ft 488kts
02-Jun-18 04:24 71.635754 -161.456408 282 38091ft 487kts
02-Jun-18 04:25 71.662294 -161.878583 281 38087ft 487kts
02-Jun-18 04:26 71.687819 -162.300509 281 38083ft 487kts
02-Jun-18 04:27 71.712374 -162.722883 281 38073ft 486kts
02-Jun-18 04:28 71.736056 -163.147240 280 38078ft 484kts
02-Jun-18 04:29 71.758652 -163.569933 280 38059ft 483kts
02-Jun-18 04:30 71.780294 -163.993104 279 38056ft 483kts
02-Jun-18 04:31 71.801046 -164.418008 279 38064ft 482kts
02-Jun-18 04:32 71.820758 -164.841705 279 38067ft 481kts
02-Jun-18 04:33 71.839514 -165.265518 278 38057ft 480kts
02-Jun-18 04:34 71.857356 -165.690646 278 38074ft 479kts
02-Jun-18 04:35 71.874181 -166.114397 277 38077ft 479kts
02-Jun-18 04:36 71.890069 -166.538605 277 38082ft 479kts
02-Jun-18 04:37 71.905050 -166.964280 277 38086ft 477kts
02-Jun-18 04:38 71.919008 -167.387721 276 38075ft 476kts
02-Jun-18 04:39 71.932051 -167.812271 275 38076ft 475kts
02-Jun-18 04:40 71.944137 -168.236239 275 38083ft 475kts
02-Jun-18 04:41 71.955278 -168.659998 275 38075ft 474kts
02-Jun-18 04:42 71.965505 -169.084650 274 38066ft 473kts
02-Jun-18 04:43 71.974747 -169.507046 274 38077ft 471kts
02-Jun-18 04:44 71.983044 -169.928359 273 38086ft 471kts
02-Jun-18 04:45 71.990458 -170.351634 273 38079ft 470kts
02-Jun-18 04:46 71.996922 -170.773228 272 38070ft 470kts
02-Jun-18 04:47 72.008956 -171.192630 278 38075ft 469kts
02-Jun-18 04:48 72.029085 -171.611275 277 38083ft 470kts
02-Jun-18 04:49 72.047835 -172.030829 277 38079ft 469kts
02-Jun-18 04:50 72.065606 -172.448866 277 38071ft 468kts
02-Jun-18 04:51 72.082499 -172.867996 276 38077ft 469kts
02-Jun-18 04:52 72.098566 -173.289915 275 38084ft 469kts
02-Jun-18 04:53 72.113657 -173.710671 275 38075ft 469kts
02-Jun-18 04:54 72.127839 -174.131298 274 38073ft 468kts
02-Jun-18 04:55 72.141102 -174.553602 274 38068ft 468kts
02-Jun-18 04:56 72.153461 -174.975808 273 38075ft 469kts
02-Jun-18 04:57 72.164980 -175.401054 272 38028ft 469kts
02-Jun-18 04:58 72.175533 -175.825113 272 38036ft 469kts
02-Jun-18 04:59 72.185165 -176.250665 272 38029ft 468kts
02-Jun-18 05:00 72.193899 -176.674952 271 38021ft 469kts
02-Jun-18 05:01 72.201704 -177.100672 270 38058ft 470kts
02-Jun-18 05:02 72.208635 -177.528837 270 38037ft 471kts
02-Jun-18 05:03 72.214569 -177.955814 270 38025ft 470kts
02-Jun-18 05:04 72.219614 -178.382569 269 38021ft 470kts
02-Jun-18 05:05 72.223152 -178.739965 268 38031ft 471kts
02-Jun-18 05:06 72.226484 -179.168302 268 38018ft 472kts
02-Jun-18 05:07 72.229220 -179.670159 267 38015ft 473kts
02-Jun-18 05:08 72.230547 179.898142 267 38019ft 473kts
02-Jun-18 05:09 72.230930 179.467767 266 37945ft 473kts
02-Jun-18 05:10 72.230376 179.035497 266 37803ft 474kts
02-Jun-18 05:11 72.228874 178.603962 265 37729ft 475kts
02-Jun-18 05:12 72.226405 178.171821 264 37664ft 475kts
02-Jun-18 05:13 72.222982 177.738755 264 37599ft 474kts
02-Jun-18 05:14 72.218697 177.307282 263 37547ft 476kts
02-Jun-18 05:15 72.214292 176.946644 263 37511ft 477kts
02-Jun-18 05:16 72.208138 176.511165 262 37516ft 479kts
02-Jun-18 05:17 72.201096 176.075993 262 37496ft 480kts
02-Jun-18 05:18 72.192985 175.641094 261 37494ft 480kts
02-Jun-18 05:19 72.183865 175.205580 261 37481ft 479kts
02-Jun-18 05:20 72.173947 174.772085 260 37478ft 480kts
02-Jun-18 05:21 72.163015 174.337932 260 37476ft 481kts
02-Jun-18 05:22 72.151034 173.902498 259 37501ft 481kts
02-Jun-18 05:23 72.138077 173.468923 259 37543ft 482kts
02-Jun-18 05:24 72.124141 173.032924 259 37540ft 484kts
02-Jun-18 05:25 72.109171 172.596844 259 37539ft 487kts
02-Jun-18 05:26 72.093179 172.158940 258 37557ft 489kts
02-Jun-18 05:27 72.076042 171.719674 258 37533ft 489kts
02-Jun-18 05:28 72.058087 171.281832 257 37540ft 490kts
02-Jun-18 05:29 72.038992 170.843741 257 37535ft 493kts
02-Jun-18 05:30 72.018771 170.402888 257 37545ft 495kts
02-Jun-18 05:31 71.997568 169.963258 256 37544ft 496kts
02-Jun-18 05:32 71.975348 169.524156 256 37542ft 496kts
02-Jun-18 05:33 71.952083 169.085009 256 37557ft 495kts
02-Jun-18 05:34 71.927905 168.648396 255 37550ft 496kts
02-Jun-18 05:35 71.901774 168.210462 253 37545ft 498kts
02-Jun-18 05:36 71.864067 167.783900 241 37551ft 497kts
02-Jun-18 05:37 71.801528 167.390907 240 37535ft 493kts
02-Jun-18 05:38 71.740026 166.999261 239 37525ft 492kts
02-Jun-18 05:39 71.677755 166.611657 239 37525ft 492kts
02-Jun-18 05:40 71.614603 166.226198 239 37534ft 494kts
02-Jun-18 05:41 71.550329 165.840718 239 37523ft 495kts
02-Jun-18 05:42 71.485376 165.458692 238 37525ft 495kts
02-Jun-18 05:43 71.419664 165.079370 238 37537ft 495kts
02-Jun-18 05:44 71.352996 164.701235 238 37531ft 495kts
02-Jun-18 05:45 71.285751 164.326827 238 37520ft 496kts
02-Jun-18 05:46 71.217687 163.954560 237 37526ft 496kts
02-Jun-18 05:47 71.148552 163.583085 237 37532ft 497kts
02-Jun-18 05:48 71.078868 163.215194 237 37520ft 497kts
02-Jun-18 05:49 71.008204 162.848618 236 37521ft 497kts
02-Jun-18 05:50 70.936918 162.485144 236 37530ft 498kts
02-Jun-18 05:51 70.864981 162.124588 236 37528ft 498kts
02-Jun-18 05:52 70.791973 161.764703 235 37520ft 499kts
02-Jun-18 05:53 70.718476 161.408606 235 37518ft 499kts
02-Jun-18 05:54 70.644245 161.054727 235 37527ft 500kts
02-Jun-18 05:55 70.568955 160.701791 235 37530ft 500kts
02-Jun-18 05:56 70.497752 160.344519 245 37531ft 500kts
02-Jun-18 05:57 70.446043 159.957707 245 37521ft 503kts
02-Jun-18 05:58 70.391821 159.572281 245 37517ft 503kts
02-Jun-18 05:59 70.336987 159.189152 245 37527ft 504kts
02-Jun-18 06:00 70.281128 158.806594 244 37505ft 505kts
02-Jun-18 06:01 70.224631 158.427269 244 37505ft 505kts
02-Jun-18 06:02 70.167251 158.049572 244 37475ft 505kts
02-Jun-18 06:03 70.108993 157.673187 243 37479ft 505kts
02-Jun-18 06:04 70.050081 157.299866 243 37478ft 505kts
02-Jun-18 06:05 69.990317 156.928214 243 37466ft 506kts
02-Jun-18 06:06 69.929562 156.557349 243 37456ft 506kts
02-Jun-18 06:07 69.868195 156.189596 242 37466ft 506kts
02-Jun-18 06:08 69.805992 155.823540 242 37463ft 507kts
02-Jun-18 06:09 69.742784 155.458203 242 37453ft 507kts
02-Jun-18 06:10 69.679054 155.096358 242 37456ft 507kts
02-Jun-18 06:11 69.614350 154.735404 241 37465ft 507kts
02-Jun-18 06:12 69.549098 154.377666 241 37459ft 507kts
02-Jun-18 06:13 69.483067 154.021838 241 37450ft 508kts
02-Jun-18 06:14 69.416015 153.666638 241 37457ft 508kts
02-Jun-18 06:15 69.348545 153.315228 240 37464ft 508kts
02-Jun-18 06:16 69.280271 152.965553 240 37458ft 508kts
02-Jun-18 06:17 69.211120 152.617134 240 37456ft 508kts
02-Jun-18 06:18 69.141512 152.272152 239 37458ft 508kts
02-Jun-18 06:19 69.070982 151.928246 239 37468ft 508kts
02-Jun-18 06:20 68.999996 151.587856 239 37463ft 508kts
02-Jun-18 06:21 68.928347 151.249270 239 37453ft 508kts
02-Jun-18 06:22 68.855811 150.912100 239 37458ft 508kts
02-Jun-18 06:23 68.782715 150.577726 238 37480ft 508kts
02-Jun-18 06:24 68.709044 150.245670 238 37549ft 508kts
02-Jun-18 06:25 68.634410 149.914522 238 37559ft 509kts
02-Jun-18 06:26 68.559363 149.586604 238 37567ft 508kts
02-Jun-18 06:27 68.483726 149.261065 237 37559ft 509kts
02-Jun-18 06:28 68.407175 148.936473 237 37555ft 509kts
02-Jun-18 06:29 68.330166 148.614791 237 37568ft 509kts
02-Jun-18 06:30 68.256947 148.287882 242 37566ft 509kts
02-Jun-18 06:31 68.189746 147.951559 241 37559ft 509kts
02-Jun-18 06:32 68.121540 147.618748 241 37570ft 509kts
02-Jun-18 06:33 68.052581 147.286916 241 37570ft 509kts
02-Jun-18 06:34 67.983191 146.958257 241 37564ft 509kts
02-Jun-18 06:35 67.913145 146.631510 240 37559ft 508kts
02-Jun-18 06:36 67.842259 146.305916 240 37555ft 508kts
02-Jun-18 06:37 67.770932 145.983198 240 37547ft 508kts
02-Jun-18 06:38 67.698999 145.662670 240 37556ft 508kts
02-Jun-18 06:39 67.626210 145.342967 239 37561ft 508kts
02-Jun-18 06:40 67.553096 145.026490 239 37554ft 508kts
02-Jun-18 06:41 67.479403 144.712199 239 37556ft 508kts
02-Jun-18 06:42 67.404849 144.398784 238 37563ft 508kts
02-Jun-18 06:43 67.329968 144.088471 238 37556ft 508kts
02-Jun-18 06:44 67.254534 143.780262 238 37555ft 508kts
02-Jun-18 06:45 67.178190 143.472708 238 37569ft 508kts
02-Jun-18 06:46 67.101584 143.168376 238 37570ft 507kts
02-Jun-18 06:47 67.024078 142.864714 237 37563ft 507kts
02-Jun-18 06:48 66.946292 142.564131 237 38585ft 505kts
02-Jun-18 06:49 66.868313 142.266824 237 39557ft 506kts
02-Jun-18 06:50 66.789304 141.969749 237 39581ft 507kts
02-Jun-18 06:51 66.709985 141.675376 236 39575ft 507kts
02-Jun-18 06:52 66.630135 141.382962 236 39580ft 506kts
02-Jun-18 06:53 66.549514 141.091634 236 39593ft 506kts
02-Jun-18 06:54 66.468626 140.803163 236 39593ft 506kts
02-Jun-18 06:55 66.387265 140.516704 236 39587ft 506kts
02-Jun-18 06:56 66.305188 140.231497 235 39596ft 505kts
02-Jun-18 06:57 66.222856 139.949026 235 39608ft 505kts
02-Jun-18 06:58 66.139814 139.667711 235 39604ft 505kts
02-Jun-18 06:59 66.056542 139.389182 235 39601ft 505kts
02-Jun-18 07:00 65.972757 139.112414 235 39612ft 505kts
02-Jun-18 07:01 65.886759 138.839716 230 39629ft 505kts
02-Jun-18 07:02 65.788973 138.593510 219 39611ft 508kts
02-Jun-18 07:03 65.667136 138.417617 213 39615ft 511kts
02-Jun-18 07:04 65.545074 138.238754 213 39626ft 512kts
02-Jun-18 07:05 65.422878 138.062920 212 39637ft 512kts
02-Jun-18 07:06 65.300454 137.888648 212 39637ft 512kts
02-Jun-18 07:07 65.177486 137.715472 212 39631ft 512kts
02-Jun-18 07:08 65.054683 137.544371 212 39631ft 512kts
02-Jun-18 07:09 64.931377 137.374440 212 39648ft 512kts
02-Jun-18 07:10 64.808305 137.206597 212 39652ft 512kts
02-Jun-18 07:11 64.685007 137.040356 212 39646ft 512kts
02-Jun-18 07:12 64.561187 136.875272 212 39649ft 511kts
02-Jun-18 07:13 64.437646 136.712247 212 39664ft 511kts
02-Jun-18 07:14 64.314004 136.550772 212 39660ft 511kts
02-Jun-18 07:15 64.189881 136.390326 212 39657ft 510kts
02-Jun-18 07:16 64.066072 136.231987 212 39669ft 510kts
02-Jun-18 07:17 63.941731 136.074602 212 39679ft 510kts
02-Jun-18 07:18 63.817686 135.919130 212 39672ft 510kts
02-Jun-18 07:19 63.693492 135.765106 211 39672ft 510kts
02-Jun-18 07:20 63.568703 135.611857 211 39685ft 509kts
02-Jun-18 07:21 63.444255 135.460563 211 39687ft 509kts
02-Jun-18 07:22 63.319771 135.310780 211 39682ft 509kts
02-Jun-18 07:23 63.194797 135.161770 212 39685ft 508kts
02-Jun-18 07:24 63.070170 135.014733 212 39722ft 508kts
02-Jun-18 07:25 62.945475 134.869014 212 39721ft 508kts
02-Jun-18 07:26 62.820219 134.724079 212 39736ft 508kts
02-Jun-18 07:27 62.695407 134.581007 212 39728ft 507kts
02-Jun-18 07:28 62.570576 134.439338 212 39720ft 507kts
02-Jun-18 07:29 62.445532 134.297749 212 39730ft 505kts
02-Jun-18 07:30 62.320978 134.158118 212 39724ft 505kts
02-Jun-18 07:31 62.195984 134.019557 212 39726ft 504kts
02-Jun-18 07:32 62.092177 133.905305 212 39715ft 504kts
02-Jun-18 07:33 61.967527 133.769296 212 39724ft 504kts
02-Jun-18 07:34 61.842343 133.633904 212 39722ft 504kts
02-Jun-18 07:35 61.717366 133.500568 212 39733ft 504kts
02-Jun-18 07:36 61.592379 133.368298 212 39742ft 503kts
02-Jun-18 07:37 61.467045 133.236933 211 39718ft 502kts
02-Jun-18 07:38 61.342130 133.107073 212 39720ft 502kts
02-Jun-18 07:39 61.217288 132.978252 212 39752ft 501kts
02-Jun-18 07:40 61.091761 132.850495 211 39710ft 501kts
02-Jun-18 07:41 60.966753 132.723893 212 39704ft 501kts
02-Jun-18 07:42 60.841218 132.597899 211 39717ft 501kts
02-Jun-18 07:43 60.716107 132.473502 211 39700ft 500kts
02-Jun-18 07:44 60.591051 132.350366 212 39715ft 500kts
02-Jun-18 07:45 60.465494 132.227515 212 39703ft 499kts
02-Jun-18 07:46 60.340338 132.106424 211 39699ft 499kts
02-Jun-18 07:47 60.215319 131.986024 212 39732ft 498kts
02-Jun-18 07:48 60.089677 131.866607 212 39713ft 498kts
02-Jun-18 07:49 59.964483 131.748147 211 39708ft 498kts
02-Jun-18 07:50 59.839110 131.630911 212 39704ft 497kts
02-Jun-18 07:51 59.713612 131.514145 211 39700ft 496kts
02-Jun-18 07:52 59.588666 131.399398 211 39695ft 495kts
02-Jun-18 07:53 59.464013 131.285427 212 39703ft 493kts
02-Jun-18 07:54 59.339313 131.172480 211 39701ft 492kts
02-Jun-18 07:55 59.215350 131.060953 212 39696ft 490kts
02-Jun-18 07:56 59.091234 130.950313 211 39701ft 488kts
02-Jun-18 07:57 58.967733 130.841201 212 39693ft 487kts
02-Jun-18 07:58 58.844557 130.733060 211 39689ft 486kts
02-Jun-18 07:59 58.722381 130.621375 215 39688ft 483kts
02-Jun-18 08:00 58.605763 130.496711 216 39695ft 478kts
02-Jun-18 08:01 58.489662 130.374133 216 39686ft 476kts
02-Jun-18 08:02 58.373505 130.252310 216 39675ft 474kts
02-Jun-18 08:03 58.258056 130.132153 216 39682ft 473kts
02-Jun-18 08:04 58.142881 130.013090 216 39689ft 471kts
02-Jun-18 08:05 58.027442 129.894512 216 39681ft 471kts
02-Jun-18 08:06 57.912364 129.777180 216 39671ft 471kts
02-Jun-18 08:07 57.796721 129.660133 215 39713ft 471kts
02-Jun-18 08:08 57.681366 129.544222 215 39719ft 471kts
02-Jun-18 08:09 57.565519 129.428693 214 39726ft 471kts
02-Jun-18 08:10 57.449948 129.314255 214 39720ft 471kts
02-Jun-18 08:11 57.334229 129.200503 214 39710ft 471kts
02-Jun-18 08:12 57.218019 129.087074 213 39714ft 471kts
02-Jun-18 08:13 57.102098 128.974730 213 39722ft 471kts
02-Jun-18 08:14 56.986015 128.863036 212 39714ft 471kts
02-Jun-18 08:15 56.869437 128.751657 212 39706ft 471kts
02-Jun-18 08:16 56.753064 128.641380 211 39711ft 472kts
02-Jun-18 08:17 56.636132 128.531538 211 39716ft 472kts
02-Jun-18 08:18 56.519392 128.422637 211 39713ft 472kts
02-Jun-18 08:19 56.402520 128.314384 210 39703ft 473kts
02-Jun-18 08:20 56.285270 128.205662 210 39710ft 473kts
02-Jun-18 08:21 56.168983 128.095602 210 39710ft 473kts
02-Jun-18 08:22 56.052563 127.986238 210 39697ft 473kts
02-Jun-18 08:23 55.935554 127.877435 209 39696ft 473kts
02-Jun-18 08:24 55.817709 127.772975 209 39702ft 474kts
02-Jun-18 08:25 55.699472 127.669769 209 39694ft 474kts
02-Jun-18 08:26 55.580635 127.566708 208 39686ft 475kts
02-Jun-18 08:27 55.461880 127.464396 208 39688ft 476kts
02-Jun-18 08:28 55.339847 127.372223 200 39685ft 479kts
02-Jun-18 08:29 55.208872 127.327750 185 39668ft 486kts
02-Jun-18 08:30 55.074214 127.306994 188 39676ft 487kts
02-Jun-18 08:31 54.938790 127.285102 187 39669ft 488kts
02-Jun-18 08:32 54.803545 127.263312 187 39661ft 489kts
02-Jun-18 08:33 54.668065 127.241566 187 39661ft 490kts
02-Jun-18 08:34 54.531983 127.219943 187 39663ft 490kts
02-Jun-18 08:35 54.396127 127.198496 187 39653ft 491kts
02-Jun-18 08:36 54.260086 127.177102 187 39644ft 491kts
02-Jun-18 08:37 54.123576 127.155820 187 39647ft 492kts
02-Jun-18 08:38 53.987452 127.134775 187 39651ft 492kts
02-Jun-18 08:39 53.850587 127.113637 186 39637ft 493kts
02-Jun-18 08:40 53.713643 127.099798 180 39634ft 496kts
02-Jun-18 08:41 53.576867 127.129671 167 39639ft 499kts
02-Jun-18 08:42 53.440865 127.178470 169 39632ft 498kts
02-Jun-18 08:43 53.305241 127.225803 169 39621ft 498kts
02-Jun-18 08:44 53.169640 127.272828 169 39624ft 498kts
02-Jun-18 08:45 53.033563 127.319681 169 39626ft 498kts
02-Jun-18 08:46 52.897835 127.366163 169 39614ft 498kts
02-Jun-18 08:47 52.761801 127.412420 169 39601ft 496kts
02-Jun-18 08:48 52.627368 127.457952 169 39611ft 492kts
02-Jun-18 08:49 52.493524 127.503163 168 39613ft 491kts
02-Jun-18 08:50 52.359385 127.548226 168 39607ft 491kts
02-Jun-18 08:51 52.225809 127.592806 168 39596ft 491kts
02-Jun-18 08:52 52.092147 127.637157 168 39599ft 490kts
02-Jun-18 08:53 51.957435 127.669894 181 39616ft 487kts
02-Jun-18 08:54 51.821781 127.667370 180 39594ft 489kts
02-Jun-18 08:55 51.685317 127.667513 180 39588ft 489kts
02-Jun-18 08:56 51.549221 127.667491 180 39596ft 490kts
02-Jun-18 08:57 51.413041 127.667489 180 39594ft 490kts
02-Jun-18 08:58 51.276952 127.656326 190 39585ft 488kts
02-Jun-18 08:59 51.143230 127.619322 189 39590ft 489kts
02-Jun-18 09:00 51.009049 127.584267 189 39588ft 489kts
02-Jun-18 09:01 50.874292 127.549179 189 39576ft 490kts
02-Jun-18 09:02 50.739909 127.514646 189 39579ft 490kts
02-Jun-18 09:03 50.604943 127.480126 189 39588ft 490kts
02-Jun-18 09:04 50.470372 127.445910 189 39582ft 490kts
02-Jun-18 09:05 50.338307 127.397201 202 39576ft 488kts
02-Jun-18 09:06 50.209148 127.329462 196 39587ft 490kts
02-Jun-18 09:07 50.075660 127.286137 189 39581ft 492kts
02-Jun-18 09:08 49.940790 127.253143 190 39578ft 491kts
02-Jun-18 09:09 49.805371 127.219501 190 39591ft 492kts
02-Jun-18 09:10 49.670319 127.186178 190 39594ft 492kts
02-Jun-18 09:11 49.535196 127.153041 190 39586ft 492kts
02-Jun-18 09:12 49.399528 127.119928 190 39593ft 492kts
02-Jun-18 09:13 49.264302 127.087145 190 39608ft 493kts
02-Jun-18 09:14 49.128572 127.054378 190 39608ft 493kts
02-Jun-18 09:15 48.993165 127.021877 189 39607ft 493kts
02-Jun-18 09:16 48.857760 126.989550 190 39617ft 493kts
02-Jun-18 09:17 48.721814 126.957300 190 39633ft 493kts
02-Jun-18 09:18 48.586223 126.925249 190 39634ft 494kts
02-Jun-18 09:19 48.450589 126.893513 190 39637ft 494kts
02-Jun-18 09:20 48.314440 126.861716 190 39655ft 494kts
02-Jun-18 09:21 48.178711 126.830112 190 39663ft 494kts
02-Jun-18 09:22 48.042460 126.798707 190 39662ft 494kts
02-Jun-18 09:23 47.906554 126.767454 190 39674ft 495kts
02-Jun-18 09:24 47.770452 126.736329 190 39686ft 495kts
02-Jun-18 09:25 47.633847 126.705270 190 39693ft 496kts
02-Jun-18 09:26 47.497638 126.674443 190 39686ft 496kts
02-Jun-18 09:27 47.361368 126.643880 190 39706ft 496kts
02-Jun-18 09:28 47.224505 126.613236 190 39711ft 496kts
02-Jun-18 09:29 47.088029 126.582800 190 39706ft 497kts
02-Jun-18 09:30 46.951038 126.552495 190 39713ft 497kts
02-Jun-18 09:31 46.814358 126.522373 190 39725ft 497kts
02-Jun-18 09:32 46.677522 126.492376 190 39724ft 498kts
02-Jun-18 09:33 46.540130 126.462402 190 39717ft 498kts
02-Jun-18 09:34 46.403085 126.431968 191 39723ft 499kts
02-Jun-18 09:35 46.265995 126.401202 191 39733ft 499kts
02-Jun-18 09:36 46.128278 126.370506 191 39729ft 500kts
02-Jun-18 09:37 45.990883 126.340052 191 39721ft 500kts
02-Jun-18 09:38 45.852919 126.309621 191 39727ft 501kts
02-Jun-18 09:39 45.715375 126.279399 191 39735ft 501kts
02-Jun-18 09:40 45.577802 126.248935 191 39726ft 501kts
02-Jun-18 09:41 45.439951 126.217710 191 39726ft 500kts
02-Jun-18 09:42 45.302455 126.186808 191 39739ft 501kts
02-Jun-18 09:43 45.187818 126.161128 191 39734ft 501kts
02-Jun-18 09:44 45.049732 126.130427 191 39742ft 501kts
02-Jun-18 09:45 44.911975 126.099746 191 39763ft 502kts
02-Jun-18 09:46 44.773589 126.069244 191 39773ft 502kts
02-Jun-18 09:47 44.635562 126.038743 192 39786ft 503kts
02-Jun-18 09:48 44.497345 126.008272 191 39807ft 503kts
02-Jun-18 09:49 44.358563 125.977906 192 39820ft 503kts
02-Jun-18 09:50 44.220210 125.947845 192 39819ft 504kts
02-Jun-18 09:51 44.081720 125.917857 192 39832ft 504kts
02-Jun-18 09:52 43.942753 125.887986 192 39843ft 504kts
02-Jun-18 09:53 43.804199 125.858283 192 39839ft 504kts
02-Jun-18 09:54 43.677247 125.782707 212 39841ft 494kts
02-Jun-18 09:55 43.555481 125.695693 211 39846ft 492kts
02-Jun-18 09:56 43.434040 125.609547 210 39838ft 491kts
02-Jun-18 09:57 43.312430 125.523694 210 39840ft 490kts
02-Jun-18 09:58 43.191408 125.438589 210 39850ft 489kts
02-Jun-18 09:59 43.070463 125.353987 210 39848ft 488kts
02-Jun-18 10:00 42.949259 125.269510 210 39840ft 487kts
02-Jun-18 10:01 42.828584 125.185794 211 39855ft 487kts
02-Jun-18 10:02 42.708030 125.101302 211 39859ft 486kts
02-Jun-18 10:03 42.587975 125.017454 211 39872ft 485kts
02-Jun-18 10:04 42.468053 124.934061 211 39872ft 485kts
02-Jun-18 10:05 42.347759 124.850748 211 39861ft 484kts
02-Jun-18 10:06 42.227899 124.768145 211 39874ft 484kts
02-Jun-18 10:07 42.108182 124.685932 210 39881ft 483kts
02-Jun-18 10:08 41.988225 124.603736 211 39873ft 482kts
02-Jun-18 10:09 41.871914 124.515616 213 39872ft 480kts
02-Jun-18 10:10 41.756051 124.427382 213 39883ft 479kts
02-Jun-18 10:11 41.639899 124.339236 213 39884ft 479kts
02-Jun-18 10:12 41.524156 124.251761 213 39875ft 478kts
02-Jun-18 10:13 41.407863 124.164380 213 39876ft 479kts
02-Jun-18 10:14 41.291021 124.079299 212 39892ft 479kts
02-Jun-18 10:15 41.173967 123.994612 212 39886ft 480kts
02-Jun-18 10:16 41.056526 123.909940 212 39877ft 479kts
02-Jun-18 10:17 40.939489 123.825946 212 39881ft 479kts
02-Jun-18 10:18 40.822519 123.742081 213 39893ft 479kts
02-Jun-18 10:19 40.705751 123.656873 213 39893ft 478kts
02-Jun-18 10:20 40.589342 123.572222 213 39887ft 478kts
02-Jun-18 10:21 40.472780 123.487102 213 39895ft 478kts
02-Jun-18 10:22 40.356558 123.402420 213 39908ft 478kts
02-Jun-18 10:23 40.240277 123.318045 213 39917ft 478kts
02-Jun-18 10:24 40.123503 123.233719 213 39907ft 478kts
02-Jun-18 10:25 40.007209 123.149658 213 39906ft 478kts
02-Jun-18 10:26 39.891193 123.065219 213 39920ft 478kts
02-Jun-18 10:27 39.774663 122.980834 213 39923ft 478kts
02-Jun-18 10:28 39.658466 122.896966 213 39920ft 478kts
02-Jun-18 10:29 39.541801 122.813165 213 39923ft 478kts
02-Jun-18 10:30 39.425385 122.729808 213 39934ft 479kts
02-Jun-18 10:31 39.308219 122.648408 206 39933ft 480kts
02-Jun-18 10:32 39.178918 122.600886 190 39932ft 489kts
02-Jun-18 10:33 39.043307 122.580746 191 39930ft 492kts
02-Jun-18 10:34 38.907503 122.558672 191 39933ft 493kts
02-Jun-18 10:35 38.771041 122.536630 191 39943ft 493kts
02-Jun-18 10:36 38.634640 122.514734 191 39938ft 493kts
02-Jun-18 10:37 38.498744 122.492960 191 39931ft 493kts
02-Jun-18 10:38 38.362418 122.477508 176 39935ft 498kts
02-Jun-18 10:39 38.235333 122.552570 150 39939ft 513kts
02-Jun-18 10:40 38.115757 122.652516 148 39950ft 517kts
02-Jun-18 10:41 38.005990 122.770060 134 39951ft 522kts
02-Jun-18 10:42 37.904320 122.902375 137 39952ft 523kts
02-Jun-18 10:43 37.802200 123.033400 137 39950ft 524kts
02-Jun-18 10:44 37.699433 123.164557 137 39983ft 524kts
02-Jun-18 10:45 37.592514 123.288094 155 39964ft 519kts
02-Jun-18 10:46 37.456597 123.336847 178 39971ft 504kts
02-Jun-18 10:47 37.317524 123.339363 182 39990ft 497kts
02-Jun-18 10:48 37.179815 123.344121 183 40000ft 495kts
02-Jun-18 10:49 37.042390 123.348407 183 39997ft 494kts
02-Jun-18 10:50 36.904632 123.352699 183 39986ft 494kts
02-Jun-18 10:51 36.767395 123.356830 183 40003ft 494kts
02-Jun-18 10:52 36.629757 123.360622 183 39998ft 493kts
02-Jun-18 10:53 36.492627 123.364420 183 39993ft 493kts
02-Jun-18 10:54 36.355630 123.368228 183 40002ft 493kts
02-Jun-18 10:55 36.218192 123.372014 183 40007ft 493kts
02-Jun-18 10:56 36.081309 123.375760 183 39992ft 492kts
02-Jun-18 10:57 35.944475 123.379512 184 40003ft 492kts
02-Jun-18 10:58 35.807248 123.383257 184 39986ft 492kts
02-Jun-18 10:59 35.670486 123.386962 184 39984ft 492kts
02-Jun-18 11:00 35.533782 123.390657 184 39994ft 492kts
02-Jun-18 11:01 35.396470 123.394380 184 39994ft 493kts
02-Jun-18 11:02 35.259537 123.398049 184 39984ft 493kts
02-Jun-18 11:03 35.122068 123.401702 184 39985ft 493kts
02-Jun-18 11:04 34.985056 123.406420 182 39996ft 494kts
02-Jun-18 11:05 34.847830 123.418277 182 39992ft 495kts
02-Jun-18 11:06 34.709867 123.430195 182 39983ft 496kts
02-Jun-18 11:07 34.572146 123.442101 182 39988ft 497kts
02-Jun-18 11:08 34.434452 123.453970 182 39998ft 497kts
02-Jun-18 11:09 34.296200 123.465823 182 39993ft 497kts
02-Jun-18 11:10 34.158438 123.477631 182 39985ft 497kts
02-Jun-18 11:11 34.020322 123.483952 187 39987ft 494kts
02-Jun-18 11:12 33.882942 123.484097 186 39997ft 494kts
02-Jun-18 11:13 33.745742 123.484612 186 39996ft 493kts
02-Jun-18 11:14 33.608078 123.485105 186 39986ft 493kts
02-Jun-18 11:15 33.470870 123.485593 186 39986ft 493kts
02-Jun-18 11:16 33.333676 123.486101 186 39993ft 494kts
02-Jun-18 11:17 33.195850 123.486599 186 39999ft 494kts
02-Jun-18 11:18 33.175271 123.486674 186 39999ft 494kts
02-Jun-18 11:19 33.175271 123.486674 186 39999ft 494kts
02-Jun-18 11:20 33.175271 123.486674 186 39999ft 494kts
02-Jun-18 11:21 33.175271 123.486674 186 39999ft 494kts
02-Jun-18 11:22 33.175271 123.486674 186 39999ft 494kts
02-Jun-18 11:23 33.175271 123.486674 186 39999ft 494kts
02-Jun-18 11:24 33.175271 123.486674 186 39999ft 494kts
02-Jun-18 11:25 33.175271 123.486674 186 39999ft 494kts
02-Jun-18 11:26 33.175271 123.486674 186 39999ft 494kts
02-Jun-18 11:27 33.175271 123.486674 186 39999ft 494kts
02-Jun-18 11:28 33.175271 123.486674 186 39999ft 494kts
02-Jun-18 11:29 33.175271 123.486674 186 39999ft 494kts
02-Jun-18 11:30 33.175271 123.486674 186 39999ft 494kts
02-Jun-18 11:31 33.175271 123.486674 186 39999ft 494kts
02-Jun-18 11:32 33.175271 123.486674 186 39999ft 494kts
02-Jun-18 11:33 33.175271 123.486674 186 39999ft 494kts
02-Jun-18 11:34 33.175271 123.486674 186 39999ft 494kts
02-Jun-18 11:35 33.113315 123.486890 186 39983ft 495kts
02-Jun-18 11:36 32.975484 123.487402 186 38688ft 496kts
02-Jun-18 11:37 32.837863 123.487904 186 36891ft 494kts
02-Jun-18 11:38 32.700280 123.488375 187 35088ft 492kts
02-Jun-18 11:39 32.564088 123.488890 187 33285ft 487kts
02-Jun-18 11:40 32.429343 123.489350 186 31489ft 482kts
02-Jun-18 11:41 32.295942 123.489851 185 29675ft 474kts
02-Jun-18 11:42 32.165873 123.490297 184 27874ft 461kts
02-Jun-18 11:43 32.039104 123.490748 184 26068ft 448kts
02-Jun-18 11:44 31.916399 123.491181 183 24268ft 434kts
02-Jun-18 11:45 31.797927 123.491602 183 22467ft 418kts
02-Jun-18 11:46 31.683582 123.494410 181 20661ft 402kts
02-Jun-18 11:47 31.579231 123.476716 225 18821ft 371kts
02-Jun-18 11:48 31.527862 123.377077 242 17257ft 346kts
02-Jun-18 11:49 31.485384 123.279933 243 16058ft 323kts
02-Jun-18 11:50 31.447442 123.185817 242 14866ft 318kts
02-Jun-18 11:51 31.421124 123.087751 256 13972ft 316kts
02-Jun-18 11:52 31.402057 122.987026 255 13177ft 315kts
02-Jun-18 11:53 31.382299 122.883180 255 12379ft 343kts
02-Jun-18 11:54 31.361152 122.772801 254 11981ft 349kts
02-Jun-18 11:55 31.332308 122.664427 251 11959ft 349kts
02-Jun-18 11:56 31.303470 122.556092 251 11962ft 349kts
02-Jun-18 11:57 31.274421 122.447428 251 11968ft 349kts
02-Jun-18 11:58 31.281602 122.339112 290 11973ft 354kts
02-Jun-18 11:59 31.310597 122.229050 284 11964ft 355kts
02-Jun-18 12:00 31.337677 122.117607 284 11960ft 356kts
02-Jun-18 12:01 31.363608 122.010831 283 11530ft 313kts
02-Jun-18 12:02 31.385304 121.920947 283 10918ft 261kts
02-Jun-18 12:03 31.404919 121.839390 283 8680ft 259kts
02-Jun-18 12:04 31.420796 121.773283 283 7180ft 239kts
02-Jun-18 12:05 31.393973 121.728982 181 5095ft 193kts
02-Jun-18 12:06 31.342349 121.717403 184 3118ft 171kts
02-Jun-18 12:07 31.300128 121.730015 162 2428ft 154kts
02-Jun-18 12:08 31.258981 121.745637 161 2062ft 155kts
02-Jun-18 12:09 31.219916 121.760387 162 1288ft 141kts
02-Jun-18 12:10 31.182902 121.774424 162 554ft 138kts
02-Jun-18 12:11 31.147655 121.787740 162 23ft 106kts
02-Jun-18 12:12 31.137328 121.793996 114 23ft 20kts
02-Jun-18 12:13 31.140331 121.795285 342 23ft 30kts
02-Jun-18 12:14 31.145376 121.793329 343 23ft 20kts
02-Jun-18 12:15 31.148438 121.795080 67 23ft 10kts

Navigation Log

Ident Type
Flight plan parsing failed, navigation log unavailable